Time;durP1;ratioP1;P1;durP2;ratioP2;P2;SDS_P1;SDS_P2;PMS_P1;PMS_P2;Temp;Humidity;BMP_temperature;BMP_pressure;BME280_temperature;BME280_humidity;BME280_pressure;Samples;Min_cycle;Max_cycle;Signal;HPM_P1;HPM_P2
2022/10/22 00:01:55;;;;;;;16.65;9.00;;;;;;;15.65;100.00;98261.72;4974257;28;20066;-59
2022/10/22 00:04:21;;;;;;;15.15;9.52;;;;;;;15.82;100.00;98291.16;4973305;28;20512;-59
2022/10/22 00:06:47;;;;;;;16.38;8.88;;;;;;;15.83;100.00;98276.25;4972124;28;20046;-59
2022/10/22 00:09:13;;;;;;;14.75;9.18;;;;;;;15.64;100.00;98246.97;4975706;28;20054;-57
2022/10/22 00:11:38;;;;;;;14.55;9.25;;;;;;;15.92;100.00;98281.19;4990160;28;20033;-59
2022/10/22 00:14:04;;;;;;;15.57;8.90;;;;;;;15.85;100.00;98276.88;4952273;28;20488;-59
2022/10/22 00:16:29;;;;;;;14.38;9.30;;;;;;;15.80;100.00;98245.16;4968440;28;20581;-60
2022/10/22 00:18:55;;;;;;;13.65;8.57;;;;;;;15.92;100.00;98278.56;4986513;28;20042;-59
2022/10/22 00:21:20;;;;;;;16.50;8.63;;;;;;;15.44;100.00;98225.84;4974118;28;20049;-58
2022/10/22 00:23:45;;;;;;;19.40;10.10;;;;;;;15.46;100.00;98230.88;4977588;28;20041;-58
2022/10/22 00:26:11;;;;;;;15.13;9.95;;;;;;;15.65;100.00;98258.31;4977161;28;20037;-59
2022/10/22 00:28:37;;;;;;;15.57;10.40;;;;;;;15.63;100.00;98255.06;4976190;28;20030;-59
2022/10/22 00:31:02;;;;;;;15.88;10.23;;;;;;;15.60;100.00;98253.59;4976479;28;20031;-59
2022/10/22 00:33:28;;;;;;;15.48;8.48;;;;;;;15.69;100.00;98252.47;4974503;28;20035;-58
2022/10/22 00:35:54;;;;;;;16.42;9.98;;;;;;;15.39;100.00;98199.38;4972514;28;20069;-59
2022/10/22 00:38:19;;;;;;;16.70;9.85;;;;;;;15.64;100.00;98246.97;4989239;28;20142;-58
2022/10/22 00:40:45;;;;;;;17.02;9.60;;;;;;;15.68;100.00;98250.03;4952480;28;20031;-57
2022/10/22 00:43:12;;;;;;;13.27;8.02;;;;;;;15.80;100.00;98239.94;4978505;28;20046;-60
2022/10/22 00:45:38;;;;;;;17.58;9.57;;;;;;;15.82;100.00;98262.31;4977333;28;20049;-59
2022/10/22 00:48:10;;;;;;;17.55;9.55;;;;;;;15.80;100.00;98226.81;4976595;28;20038;-58
2022/10/22 00:50:48;;;;;;;17.17;9.38;;;;;;;15.79;100.00;98252.22;4981008;28;20045;-58
2022/10/22 00:53:17;;;;;;;15.73;8.70;;;;;;;15.72;100.00;98248.69;4973995;28;20108;-58
2022/10/22 00:55:43;;;;;;;;;;;;;;;15.72;100.00;98235.59;4976275;28;20030;-60
2022/10/22 00:58:09;;;;;;;13.73;7.97;;;;;;;15.72;100.00;98233.78;5004358;28;20478;-59
2022/10/22 01:00:34;;;;;;;14.15;8.32;;;;;;;15.53;100.00;98195.06;4971071;28;20038;-59
2022/10/22 01:03:00;;;;;;;14.32;8.05;;;;;;;15.75;100.00;98225.56;4980140;28;20485;-59
2022/10/22 01:05:27;;;;;;;12.27;7.93;;;;;;;15.78;100.00;98221.75;4992258;28;20060;-58
2022/10/22 01:07:53;;;;;;;16.08;8.93;;;;;;;15.74;100.00;98226.56;4969911;28;20097;-59
2022/10/22 01:10:41;;;;;;;12.98;8.10;;;;;;;15.77;100.00;98225.41;4969775;28;20484;-58
2022/10/22 01:13:25;;;;;;;15.60;8.82;;;;;;;15.71;100.00;98226.91;4970032;28;20034;-59
2022/10/22 01:15:58;;;;;;;15.43;8.95;;;;;;;15.76;100.00;98232.44;4957577;28;20469;-58
2022/10/22 01:18:36;;;;;;;13.40;8.70;;;;;;;15.72;100.00;98223.28;4962197;28;20037;-59
2022/10/22 01:21:17;;;;;;;13.82;8.02;;;;;;;15.81;100.00;98239.75;4976694;28;20030;-59
2022/10/22 01:23:50;;;;;;;16.75;8.05;;;;;;;15.83;100.00;98231.69;4967237;28;21444;-60
2022/10/22 01:26:15;;;;;;;13.25;8.05;;;;;;;15.83;100.00;98237.75;4965397;28;20034;-59
2022/10/22 01:28:53;;;;;;;14.88;7.93;;;;;;;15.60;100.00;98192.53;4963109;28;20041;-58
2022/10/22 01:31:19;;;;;;;14.23;8.32;;;;;;;15.70;100.00;98219.25;4959040;28;20034;-59
2022/10/22 01:33:46;;;;;;;11.45;7.35;;;;;;;15.74;100.00;98223.13;4965826;28;20049;-58
2022/10/22 01:36:12;;;;;;;13.23;7.50;;;;;;;15.66;100.00;98226.66;4953497;28;20035;-58
2022/10/22 01:38:38;;;;;;;13.45;7.30;;;;;;;15.66;100.00;98213.56;4969157;28;20096;-58
2022/10/22 01:41:04;;;;;;;12.77;7.68;;;;;;;15.73;100.00;98227.53;4958857;28;20035;-57
2022/10/22 01:43:30;;;;;;;15.45;8.40;;;;;;;15.78;100.00;98224.38;4974614;28;20049;-57
2022/10/22 01:45:57;;;;;;;13.32;7.30;;;;;;;15.70;100.00;98221.88;4972271;28;20477;-58
2022/10/22 01:48:22;;;;;;;13.45;7.78;;;;;;;15.44;100.00;98189.16;4983366;28;20037;-59
2022/10/22 01:51:16;;;;;;;12.05;7.47;;;;;;;15.63;100.00;98206.06;4981709;28;20026;-60
2022/10/22 01:54:00;;;;;;;12.75;7.63;;;;;;;15.72;100.00;98206.75;4984771;28;20050;-58
2022/10/22 01:57:07;;;;;;;14.93;8.38;;;;;;;15.76;100.00;98229.81;4973446;28;20022;-59
2022/10/22 01:59:53;;;;;;;16.52;8.40;;;;;;;15.69;100.00;98226.28;4980624;28;20038;-58
2022/10/22 02:02:52;;;;;;;13.23;7.72;;;;;;;15.77;100.00;98230.63;4981402;28;20054;-59
2022/10/22 02:05:26;;;;;;;9.93;5.95;;;;;;;15.73;100.00;98224.94;4963304;28;20406;-57
2022/10/22 02:08:04;;;;;;;12.32;6.90;;;;;;;15.68;100.00;98216.81;4976933;28;20520;-58
2022/10/22 02:10:30;;;;;;;9.55;6.40;;;;;;;15.33;100.00;98181.78;4963728;28;20133;-56
2022/10/22 02:12:57;;;;;;;10.80;6.75;;;;;;;15.15;100.00;98140.28;4980128;28;20034;-57
2022/10/22 02:15:25;;;;;;;13.00;7.60;;;;;;;15.37;100.00;98173.38;4971303;28;20482;-57
2022/10/22 02:17:51;;;;;;;12.07;7.30;;;;;;;15.67;100.00;98223.03;4970729;28;20379;-56
2022/10/22 02:20:18;;;;;;;16.58;8.02;;;;;;;15.57;100.00;98235.66;4974936;28;20659;-57
2022/10/22 02:22:44;;;;;;;10.48;6.25;;;;;;;15.59;100.00;98244.13;4970684;28;20565;-57
2022/10/22 02:25:10;;;;;;;8.63;5.30;;;;;;;15.56;100.00;98244.50;4970118;28;20042;-55
2022/10/22 02:27:51;;;;;;;9.18;5.53;;;;;;;15.42;100.00;98245.34;4986508;28;20830;-58
2022/10/22 02:30:18;;;;;;;9.40;5.38;;;;;;;15.58;100.00;98261.63;4991854;28;20035;-59
2022/10/22 02:32:55;;;;;;;7.82;4.18;;;;;;;15.61;100.00;98260.47;4980975;28;20034;-57
2022/10/22 02:35:22;;;;;;;6.03;3.42;;;;;;;15.60;100.00;98245.75;4978805;28;20038;-58
2022/10/22 02:37:49;;;;;;;8.32;4.25;;;;;;;15.56;100.00;98237.44;4970758;28;20381;-59
2022/10/22 02:40:14;;;;;;;8.30;3.72;;;;;;;15.63;100.00;98249.81;4978227;28;20041;-58
2022/10/22 02:42:41;;;;;;;8.63;5.03;;;;;;;15.71;100.00;98254.94;4977219;28;20031;-58
2022/10/22 02:45:06;;;;;;;8.60;5.25;;;;;;;15.46;100.00;98218.59;4978565;28;20030;-61
2022/10/22 02:47:32;;;;;;;10.70;4.82;;;;;;;15.68;100.00;98250.03;4981527;28;20057;-58
2022/10/22 02:49:57;;;;;;;8.32;5.43;;;;;;;15.68;100.00;98260.53;4970224;28;20576;-57
2022/10/22 02:52:23;;;;;;;9.30;5.50;;;;;;;15.40;100.00;98242.09;4976505;28;20381;-57
2022/10/22 02:54:48;;;;;;;8.80;5.53;;;;;;;15.40;100.00;98234.25;4961531;28;20037;-56
2022/10/22 02:57:13;;;;;;;9.90;5.38;;;;;;;15.68;100.00;98282.31;4974998;28;20546;-57
2022/10/22 02:59:39;;;;;;;9.23;5.38;;;;;;;15.71;100.00;98276.69;4971034;28;20045;-56
2022/10/22 03:02:04;;;;;;;10.93;6.60;;;;;;;15.66;100.00;98268.59;4972588;28;20310;-57
2022/10/22 03:04:29;;;;;;;11.88;6.78;;;;;;;15.65;100.00;98271.41;4992476;28;20033;-57
2022/10/22 03:06:55;;;;;;;11.10;6.57;;;;;;;15.66;100.00;98275.63;4963884;28;20065;-57
2022/10/22 03:09:20;;;;;;;14.55;7.45;;;;;;;15.64;100.00;98273.19;4966220;28;20134;-57
2022/10/22 03:11:46;;;;;;;13.00;7.40;;;;;;;15.66;100.00;98283.50;4970042;28;20041;-58
2022/10/22 03:14:11;;;;;;;14.07;8.02;;;;;;;15.61;100.00;98286.69;4976107;28;20472;-57
2022/10/22 03:16:37;;;;;;;13.38;7.93;;;;;;;15.60;100.00;98290.28;4984280;28;20095;-58
2022/10/22 03:19:02;;;;;;;14.55;8.75;;;;;;;15.53;100.00;98278.91;4972609;28;20405;-59
2022/10/22 03:21:39;;;;;;;14.13;9.73;;;;;;;15.53;100.00;98282.38;4972770;28;20034;-58
2022/10/22 03:24:11;;;;;;;14.70;8.98;;;;;;;15.51;100.00;98288.78;4986551;28;20034;-59
2022/10/22 03:26:37;;;;;;;12.30;8.52;;;;;;;15.52;100.00;98299.06;4979851;28;20141;-58
2022/10/22 03:29:03;;;;;;;16.85;9.40;;;;;;;15.56;100.00;98292.47;4962850;28;20859;-57
2022/10/22 03:31:28;;;;;;;14.82;9.45;;;;;;;15.57;100.00;98285.44;4973947;28;20058;-56
2022/10/22 03:33:54;;;;;;;18.23;10.77;;;;;;;15.52;100.00;98287.78;4973733;28;20107;-57
2022/10/22 03:36:19;;;;;;;15.20;9.63;;;;;;;15.56;100.00;98289.84;4976048;28;20389;-57
2022/10/22 03:38:45;;;;;;;16.48;10.52;;;;;;;15.36;100.00;98249.50;4977818;28;20046;-59
2022/10/22 03:41:10;;;;;;;16.10;10.32;;;;;;;15.47;100.00;98287.53;4956555;28;20061;-58
2022/10/22 03:43:36;;;;;;;13.05;9.32;;;;;;;15.45;100.00;98289.53;4976352;28;20042;-58
2022/10/22 03:46:01;;;;;;;17.63;10.52;;;;;;;15.45;100.00;98294.75;4978985;28;20035;-57
2022/10/22 03:48:27;;;;;;;15.57;10.07;;;;;;;15.43;100.00;98289.69;4970226;28;20132;-57
2022/10/22 03:50:52;;;;;;;16.48;11.23;;;;;;;15.44;100.00;98291.34;4961689;28;20037;-58
2022/10/22 03:53:17;;;;;;;16.10;9.88;;;;;;;15.44;100.00;98290.50;4977586;28;20031;-58
2022/10/22 03:55:43;;;;;;;16.00;10.50;;;;;;;15.46;100.00;98301.59;4974984;28;20109;-59
2022/10/22 03:58:08;;;;;;;15.13;10.68;;;;;;;15.54;100.00;98306.75;4981670;28;20042;-59
2022/10/22 04:00:34;;;;;;;17.98;11.20;;;;;;;15.48;100.00;98299.63;4975754;28;20026;-58
2022/10/22 04:03:00;;;;;;;16.67;11.10;;;;;;;15.48;100.00;98295.22;4967942;28;20030;-58
2022/10/22 04:05:25;;;;;;;17.55;11.25;;;;;;;15.51;100.00;98291.41;4974966;28;20030;-58
2022/10/22 04:07:51;;;;;;;17.88;10.85;;;;;;;15.52;100.00;98300.91;4972245;28;20506;-58
2022/10/22 04:10:16;;;;;;;14.95;10.55;;;;;;;15.55;100.00;98300.50;4970004;28;20035;-58
2022/10/22 04:12:41;;;;;;;17.33;11.57;;;;;;;15.34;100.00;98262.78;4957846;28;20026;-59
2022/10/22 04:15:08;;;;;;;17.15;10.82;;;;;;;15.17;100.00;98259.56;4970706;28;20043;-59
2022/10/22 04:17:34;;;;;;;16.83;10.70;;;;;;;15.45;100.00;98295.56;4974615;28;20030;-58
2022/10/22 04:20:00;;;;;;;17.67;11.40;;;;;;;15.46;100.00;98291.97;4964891;28;20161;-58
2022/10/22 04:22:25;;;;;;;17.88;10.80;;;;;;;15.49;100.00;98296.81;4973994;28;20236;-59
2022/10/22 04:24:51;;;;;;;16.65;11.82;;;;;;;15.23;100.00;98259.84;4967159;28;20034;-59
2022/10/22 04:27:16;;;;;;;16.42;11.27;;;;;;;15.53;100.00;98299.88;4978465;28;20052;-60
2022/10/22 04:29:41;;;;;;;15.93;11.15;;;;;;;15.33;100.00;98281.31;4971024;28;20027;-59
2022/10/22 04:32:07;;;;;;;17.42;11.52;;;;;;;15.48;100.00;98303.06;4972570;28;20479;-59
2022/10/22 04:34:32;;;;;;;18.13;10.90;;;;;;;15.31;100.00;98257.09;4987950;28;20074;-59
2022/10/22 04:36:58;;;;;;;17.35;11.63;;;;;;;15.56;100.00;98287.22;4973191;28;20027;-57
2022/10/22 04:39:23;;;;;;;18.70;12.32;;;;;;;15.55;100.00;98309.19;4969984;28;20836;-59
2022/10/22 04:41:49;;;;;;;17.63;12.40;;;;;;;15.55;100.00;98311.81;4965203;28;20088;-58
2022/10/22 04:44:14;;;;;;;17.17;11.65;;;;;;;15.37;100.00;98288.63;4974665;28;20032;-59
2022/10/22 04:46:39;;;;;;;17.77;11.88;;;;;;;15.40;100.00;98279.56;4976767;28;20030;-60
2022/10/22 04:49:05;;;;;;;18.15;11.80;;;;;;;15.52;100.00;98304.31;4972335;28;20528;-58
2022/10/22 04:51:31;;;;;;;15.73;10.85;;;;;;;15.28;100.00;98263.53;4969842;28;20037;-57
2022/10/22 04:53:56;;;;;;;14.95;10.48;;;;;;;15.53;100.00;98310.34;4966829;28;20837;-60
2022/10/22 04:56:24;;;;;;;19.67;11.18;;;;;;;15.48;100.00;98297.81;4971258;28;20035;-59
2022/10/22 04:58:52;;;;;;;16.80;10.65;;;;;;;15.49;100.00;98306.50;4974963;28;20022;-60
2022/10/22 05:01:23;;;;;;;15.73;9.85;;;;;;;15.51;100.00;98299.25;4958826;28;20031;-59
2022/10/22 05:03:51;;;;;;;16.00;11.50;;;;;;;15.32;100.00;98261.38;4966457;28;20053;-58
2022/10/22 05:06:19;;;;;;;16.67;10.95;;;;;;;15.36;100.00;98268.66;4961231;28;20093;-59
2022/10/22 05:08:45;;;;;;;17.05;11.45;;;;;;;15.55;100.00;98290.84;4975969;28;20058;-59
2022/10/22 05:11:16;;;;;;;15.70;10.80;;;;;;;15.27;100.00;98261.09;4971274;28;20109;-58
2022/10/22 05:13:42;;;;;;;15.82;10.57;;;;;;;15.35;100.00;98297.66;4974980;28;20022;-59
2022/10/22 05:16:08;;;;;;;17.77;10.63;;;;;;;15.13;100.00;98263.56;4969512;28;20732;-58
2022/10/22 05:18:35;;;;;;;15.90;10.85;;;;;;;15.41;100.00;98309.22;4972977;28;20034;-59
2022/10/22 05:21:01;;;;;;;15.75;10.25;;;;;;;15.39;100.00;98301.53;4968660;28;20027;-60
2022/10/22 05:23:27;;;;;;;15.52;9.40;;;;;;;15.37;100.00;98304.34;4986737;28;20541;-58
2022/10/22 05:25:52;;;;;;;15.10;9.55;;;;;;;15.37;100.00;98293.88;4967389;28;20039;-59
2022/10/22 05:28:18;;;;;;;13.27;9.25;;;;;;;15.44;100.00;98298.38;4969494;28;20045;-58
2022/10/22 05:30:52;;;;;;;15.52;9.07;;;;;;;15.43;100.00;98307.22;4954150;28;20073;-58
2022/10/22 05:33:17;;;;;;;12.95;8.25;;;;;;;15.34;100.00;98296.84;4965567;28;20038;-58
2022/10/22 05:35:43;;;;;;;16.05;8.63;;;;;;;15.44;100.00;98312.28;4964726;28;20034;-59
2022/10/22 05:38:08;;;;;;;11.32;7.03;;;;;;;15.43;100.00;98310.66;4968521;28;20030;-59
2022/10/22 05:40:34;;;;;;;11.88;6.88;;;;;;;15.46;100.00;98312.09;4962023;28;20035;-59
2022/10/22 05:42:59;;;;;;;12.15;6.95;;;;;;;15.49;100.00;98320.41;4963867;28;20038;-58
2022/10/22 05:45:24;;;;;;;11.27;6.68;;;;;;;15.52;100.00;98327.09;4964868;28;20045;-59
2022/10/22 05:47:50;;;;;;;11.32;6.22;;;;;;;15.25;100.00;98278.81;4961996;28;20121;-59
2022/10/22 05:50:15;;;;;;;12.18;7.05;;;;;;;15.51;100.00;98320.22;4966882;28;20150;-56
2022/10/22 05:52:41;;;;;;;10.52;6.18;;;;;;;15.52;100.00;98325.28;4962143;28;20098;-58
2022/10/22 05:55:06;;;;;;;9.57;6.18;;;;;;;15.52;100.00;98333.13;4965065;28;20062;-58
2022/10/22 05:57:32;;;;;;;9.85;6.28;;;;;;;15.47;100.00;98326.81;4965051;28;20043;-59
2022/10/22 05:59:57;;;;;;;10.77;6.13;;;;;;;15.53;100.00;98341.81;4964287;28;20077;-59
2022/10/22 06:02:23;;;;;;;10.40;7.10;;;;;;;15.44;100.00;98353.38;4964582;28;20472;-59
2022/10/22 06:04:48;;;;;;;10.00;6.35;;;;;;;15.19;100.00;98303.91;4966549;28;20022;-59
2022/10/22 06:07:14;;;;;;;9.93;6.55;;;;;;;15.23;100.00;98309.59;4973404;28;20034;-58
2022/10/22 06:09:40;;;;;;;10.40;5.80;;;;;;;15.33;100.00;98326.66;4967916;28;20133;-59
2022/10/22 06:12:09;;;;;;;9.20;6.03;;;;;;;15.45;100.00;98353.19;4980272;28;20043;-58
2022/10/22 06:14:35;;;;;;;8.52;6.13;;;;;;;15.52;100.00;98351.47;4969301;28;20035;-59
2022/10/22 06:17:00;;;;;;;7.93;5.53;;;;;;;15.43;100.00;98354.41;4962665;28;20473;-59
2022/10/22 06:19:26;;;;;;;7.97;5.25;;;;;;;15.32;100.00;98321.59;4968578;28;20093;-58
2022/10/22 06:21:52;;;;;;;8.77;5.30;;;;;;;15.50;100.00;98352.66;4976064;28;20073;-59
2022/10/22 06:24:17;;;;;;;8.77;5.50;;;;;;;15.49;100.00;98367.56;4961853;28;20122;-59
2022/10/22 06:26:43;;;;;;;12.07;6.57;;;;;;;15.48;100.00;98372.97;4978367;28;20113;-58
2022/10/22 06:29:08;;;;;;;10.38;6.50;;;;;;;15.51;100.00;98372.63;4964134;28;20833;-59
2022/10/22 06:31:37;;;;;;;9.85;6.70;;;;;;;15.48;100.00;98386.06;4974835;28;20708;-59
2022/10/22 06:34:07;;;;;;;10.52;6.28;;;;;;;15.45;100.00;98394.31;4981150;28;20064;-58
2022/10/22 06:36:33;;;;;;;10.18;6.18;;;;;;;15.43;100.00;98398.94;4965632;28;20030;-59
2022/10/22 06:38:59;;;;;;;8.40;5.43;;;;;;;15.52;100.00;98409.13;4995424;28;20057;-57
2022/10/22 06:41:24;;;;;;;8.32;5.43;;;;;;;15.49;100.00;98400.81;4957917;28;20027;-57
2022/10/22 06:43:49;;;;;;;10.45;5.70;;;;;;;15.53;100.00;98402.91;4973337;28;20065;-57
2022/10/22 06:46:17;;;;;;;9.00;5.30;;;;;;;15.54;100.00;98404.50;4979789;28;20042;-58
2022/10/22 06:48:48;;;;;;;9.50;5.63;;;;;;;15.52;100.00;98408.31;4974431;28;20061;-58
2022/10/22 06:51:13;;;;;;;8.57;5.50;;;;;;;15.47;100.00;98403.59;4980295;28;20176;-58
2022/10/22 06:53:39;;;;;;;9.77;5.60;;;;;;;15.51;100.00;98402.25;4971469;28;20674;-58
2022/10/22 06:56:10;;;;;;;8.48;5.15;;;;;;;15.55;100.00;98413.19;4975248;28;20505;-57
2022/10/22 06:58:35;;;;;;;7.32;4.75;;;;;;;15.60;100.00;98418.69;4976960;28;20022;-57
2022/10/22 07:01:03;;;;;;;7.95;4.88;;;;;;;15.26;100.00;98369.47;4977043;28;20034;-58
2022/10/22 07:03:29;;;;;;;7.90;3.83;;;;;;;15.47;100.00;98410.66;4970906;28;20425;-58
2022/10/22 07:05:54;;;;;;;5.55;2.92;;;;;;;15.45;100.00;98400.38;4965557;28;20397;-59
2022/10/22 07:08:20;;;;;;;5.60;3.03;;;;;;;15.57;100.00;98416.47;4969728;28;20445;-59
2022/10/22 07:10:45;;;;;;;6.75;3.25;;;;;;;15.64;100.00;98408.66;4972008;28;20117;-59
2022/10/22 07:13:10;;;;;;;6.05;3.38;;;;;;;15.60;100.00;98405.59;4973869;28;20027;-59
2022/10/22 07:15:36;;;;;;;5.82;3.33;;;;;;;15.41;100.00;98367.66;4972348;28;20089;-59
2022/10/22 07:18:03;;;;;;;5.32;2.58;;;;;;;15.62;100.00;98405.41;4972759;28;20113;-59
2022/10/22 07:20:29;;;;;;;5.22;2.45;;;;;;;15.54;100.00;98391.41;4972995;28;20058;-58
2022/10/22 07:22:54;;;;;;;6.13;3.08;;;;;;;15.68;100.00;98408.13;4982671;28;20026;-60
2022/10/22 07:25:19;;;;;;;6.13;3.10;;;;;;;15.64;100.00;98396.38;4958224;28;20034;-59
2022/10/22 07:27:45;;;;;;;6.65;3.05;;;;;;;15.69;100.00;98395.84;4963486;28;20120;-59
2022/10/22 07:30:10;;;;;;;5.85;2.88;;;;;;;15.72;100.00;98413.81;4985258;28;20030;-60
2022/10/22 07:32:36;;;;;;;5.88;2.60;;;;;;;15.74;100.00;98420.53;4970978;28;20026;-58
2022/10/22 07:35:03;;;;;;;5.15;2.20;;;;;;;15.72;100.00;98424.31;4963544;28;20034;-59
2022/10/22 07:37:28;;;;;;;4.90;1.90;;;;;;;15.89;100.00;98433.63;4971150;28;21044;-61
2022/10/22 07:39:54;;;;;;;5.32;2.38;;;;;;;15.94;100.00;98444.38;4974448;28;20136;-59
2022/10/22 07:42:19;;;;;;;5.68;2.83;;;;;;;15.99;100.00;98453.50;4968285;28;20040;-60
2022/10/22 07:44:45;;;;;;;5.03;1.70;;;;;;;15.93;100.00;98450.63;4976321;28;20046;-60
2022/10/22 07:47:10;;;;;;;3.80;1.30;;;;;;;16.02;100.00;98467.03;4971673;28;20084;-59
2022/10/22 07:49:35;;;;;;;5.72;2.45;;;;;;;16.14;100.00;98460.34;4990017;28;20042;-58
2022/10/22 07:52:01;;;;;;;8.70;4.32;;;;;;;16.20;100.00;98465.84;4971367;28;20411;-57
2022/10/22 07:54:26;;;;;;;8.15;3.13;;;;;;;16.19;100.00;98462.44;4956791;28;20057;-59
2022/10/22 07:56:52;;;;;;;9.13;5.00;;;;;;;16.29;100.00;98462.13;4976152;28;20042;-59
2022/10/22 07:59:17;;;;;;;5.10;2.78;;;;;;;16.26;100.00;98460.69;4972132;28;20046;-59
2022/10/22 08:01:43;;;;;;;4.97;2.00;;;;;;;16.23;100.00;98461.06;4970382;28;20536;-58
2022/10/22 08:04:08;;;;;;;4.65;2.13;;;;;;;16.13;100.00;98445.59;4963322;28;20744;-59
2022/10/22 08:06:34;;;;;;;5.35;1.20;;;;;;;16.09;100.00;98433.03;4956640;28;20114;-60
2022/10/22 08:09:00;;;;;;;4.22;1.30;;;;;;;16.31;100.00;98457.50;4967853;28;20093;-59
2022/10/22 08:11:25;;;;;;;3.90;1.60;;;;;;;16.28;100.00;98465.72;4969640;28;20090;-59
2022/10/22 08:13:51;;;;;;;6.57;2.72;;;;;;;16.19;100.00;98451.94;4968761;28;20026;-59
2022/10/22 08:16:17;;;;;;;7.95;4.50;;;;;;;16.28;100.00;98458.69;4970668;28;20027;-60
2022/10/22 08:18:43;;;;;;;6.85;3.40;;;;;;;16.27;100.00;98467.56;4966431;28;20031;-58
2022/10/22 08:21:09;;;;;;;5.50;1.70;;;;;;;16.13;100.00;98453.47;4964642;28;20034;-59
2022/10/22 08:23:35;;;;;;;4.65;1.70;;;;;;;16.29;100.00;98464.75;4968028;28;20035;-61
2022/10/22 08:26:01;;;;;;;4.40;1.60;;;;;;;16.28;100.00;98469.19;4967501;28;20040;-58
2022/10/22 08:28:28;;;;;;;4.72;1.17;;;;;;;16.36;100.00;98477.94;4966627;28;20031;-59
2022/10/22 08:30:54;;;;;;;4.55;1.45;;;;;;;16.33;100.00;98484.34;4970865;28;20134;-59
2022/10/22 08:33:20;;;;;;;5.97;2.33;;;;;;;16.35;100.00;98487.59;4963137;28;20034;-58
2022/10/22 08:35:49;;;;;;;3.97;1.30;;;;;;;16.23;100.00;98482.03;4950665;28;20519;-58
2022/10/22 08:38:15;;;;;;;;;;;;;;;16.36;100.00;98494.50;4970906;28;20066;-59
2022/10/22 08:40:41;;;;;;;4.07;1.65;;;;;;;16.23;100.00;98476.78;4966429;28;20036;-58
2022/10/22 08:43:41;;;;;;;6.15;2.30;;;;;;;16.27;100.00;98483.28;4955677;28;20041;-58
2022/10/22 08:46:27;;;;;;;4.00;1.50;;;;;;;16.29;100.00;98490.97;4972759;28;20030;-59
2022/10/22 08:48:55;;;;;;;5.20;2.00;;;;;;;16.25;100.00;98493.16;4966732;28;20027;-58
2022/10/22 08:51:23;;;;;;;4.35;1.60;;;;;;;16.29;100.00;98494.41;4965178;28;20026;-58
2022/10/22 08:54:15;;;;;;;5.27;1.87;;;;;;;16.04;100.00;98472.13;4956984;28;20027;-58
2022/10/22 08:56:44;;;;;;;5.25;2.10;;;;;;;16.25;100.00;98501.03;4973061;28;20112;-58
2022/10/22 08:59:14;;;;;;;;;;;;;;;16.25;100.00;98505.47;4959466;28;20042;-60
2022/10/22 09:01:44;;;;;;;4.55;1.80;;;;;;;16.32;100.00;98507.16;4963876;28;19986;-59
2022/10/22 09:04:26;;;;;;;4.90;2.63;;;;;;;16.36;100.00;98504.19;4978097;28;20053;-60
2022/10/22 09:06:53;;;;;;;4.72;2.42;;;;;;;16.40;100.00;98503.63;4975718;28;20569;-60
2022/10/22 09:09:19;;;;;;;4.90;2.58;;;;;;;16.26;100.00;98462.47;4951714;28;20042;-59
2022/10/22 09:11:50;;;;;;;6.47;3.58;;;;;;;16.54;100.00;98496.72;4970486;28;20088;-59
2022/10/22 09:14:18;;;;;;;10.68;5.35;;;;;;;16.64;100.00;98506.91;4978809;28;20105;-59
2022/10/22 09:17:12;;;;;;;8.13;3.15;;;;;;;16.68;100.00;98502.91;4974020;28;20049;-59
2022/10/22 09:19:46;;;;;;;4.60;1.75;;;;;;;16.67;100.00;98498.66;4982655;28;20034;-58
2022/10/22 09:22:33;;;;;;;3.65;1.50;;;;;;;16.71;100.00;98495.47;4978883;28;20609;-60
2022/10/22 09:25:10;;;;;;;3.55;1.30;;;;;;;16.77;100.00;98499.16;4965420;28;20497;-59
2022/10/22 09:27:35;;;;;;;3.47;1.30;;;;;;;16.80;100.00;98505.84;4972290;28;20109;-59
2022/10/22 09:30:01;;;;;;;3.58;1.40;;;;;;;16.87;100.00;98504.16;4943456;28;20087;-59
2022/10/22 09:32:27;;;;;;;2.92;1.15;;;;;;;16.65;100.00;98469.97;4970927;28;20035;-59
2022/10/22 09:34:56;;;;;;;4.30;1.08;;;;;;;16.80;100.00;98479.59;4956423;28;20240;-59
2022/10/22 09:37:25;;;;;;;5.67;1.33;;;;;;;17.06;100.00;98515.81;4975214;28;20508;-59
2022/10/22 09:39:51;;;;;;;3.20;1.20;;;;;;;16.94;100.00;98481.38;4960832;28;20022;-59
2022/10/22 09:42:19;;;;;;;2.92;1.00;;;;;;;17.09;100.00;98512.81;4962179;28;20085;-60
2022/10/22 09:44:55;;;;;;;4.13;1.23;;;;;;;16.89;100.00;98486.38;4973052;28;20078;-60
2022/10/22 09:47:41;;;;;;;2.92;1.20;;;;;;;17.18;100.00;98531.91;4962779;28;20035;-59
2022/10/22 09:50:38;;;;;;;3.30;1.20;;;;;;;16.99;100.00;98509.69;4960415;28;20022;-59
2022/10/22 09:53:18;;;;;;;2.85;0.90;;;;;;;17.22;100.00;98538.41;4965602;28;20121;-59
2022/10/22 09:55:49;;;;;;;4.75;1.88;;;;;;;17.25;100.00;98538.84;4973891;28;20104;-59
2022/10/22 09:58:16;;;;;;;3.20;1.00;;;;;;;17.18;100.00;98530.06;4979239;28;20057;-59
2022/10/22 10:00:44;;;;;;;3.05;0.98;;;;;;;17.28;100.00;98545.50;4982046;28;20030;-59
2022/10/22 10:03:19;;;;;;;3.53;1.02;;;;;;;17.17;100.00;98546.81;4990233;28;20035;-59
2022/10/22 10:05:51;;;;;;;2.65;0.80;;;;;;;17.15;100.00;98534.91;4969870;28;20080;-60
2022/10/22 10:08:17;;;;;;;3.33;1.00;;;;;;;17.08;100.00;98514.66;4970738;28;20405;-60
2022/10/22 10:11:15;;;;;;;2.78;0.90;;;;;;;17.23;100.00;98534.75;4982082;28;20080;-58
2022/10/22 10:13:48;;;;;;;2.97;1.00;;;;;;;17.16;100.00;98542.59;4969018;28;20088;-58
2022/10/22 10:16:59;;;;;;;3.42;0.82;;;;;;;17.17;100.00;98540.78;4989450;28;20112;-58
2022/10/22 10:19:42;;;;;;;2.60;0.80;;;;;;;17.24;100.00;98537.19;4980043;28;20111;-60
2022/10/22 10:22:16;;;;;;;2.92;1.23;;;;;;;17.23;100.00;98534.75;4988237;28;20037;-60
2022/10/22 10:25:10;;;;;;;1.77;0.80;;;;;;;17.22;100.00;98538.41;4982955;28;20781;-60
2022/10/22 10:27:57;;;;;;;2.63;0.90;;;;;;;17.26;100.00;98539.63;4968594;28;20046;-60
2022/10/22 10:30:23;;;;;;;2.67;1.00;;;;;;;17.35;100.00;98545.56;4976623;28;20038;-59
2022/10/22 10:32:54;;;;;;;3.47;1.00;;;;;;;17.33;100.00;98545.75;4977156;28;20038;-60
2022/10/22 10:35:41;;;;;;;2.63;0.80;;;;;;;17.38;100.00;98555.72;4980396;28;20045;-60
2022/10/22 10:38:18;;;;;;;5.15;1.40;;;;;;;17.36;100.00;98534.03;4975668;28;20058;-60
2022/10/22 10:40:56;;;;;;;4.47;1.90;;;;;;;17.36;100.00;98552.44;4975313;28;20385;-60
2022/10/22 10:43:27;;;;;;;6.40;2.30;;;;;;;17.45;100.00;98553.94;4984316;28;20053;-60
2022/10/22 10:46:08;;;;;;;6.13;2.05;;;;;;;17.49;100.00;98547.31;4985817;28;20612;-60
2022/10/22 10:49:10;;;;;;;4.80;1.98;;;;;;;17.56;100.00;98557.84;4978674;28;20034;-60
2022/10/22 10:51:57;;;;;;;4.95;1.40;;;;;;;17.59;100.00;98562.75;4971853;28;20039;-60
2022/10/22 10:54:44;;;;;;;4.18;1.58;;;;;;;17.59;100.00;98546.97;4974329;28;20044;-60
2022/10/22 10:57:25;;;;;;;3.60;1.42;;;;;;;17.61;100.00;98556.28;4971025;28;20689;-61
2022/10/22 11:00:09;;;;;;;2.72;0.93;;;;;;;17.62;100.00;98546.59;4970743;28;20042;-60
2022/10/22 11:03:03;;;;;;;2.47;1.00;;;;;;;17.59;100.00;98549.59;4988937;28;20033;-60
2022/10/22 11:05:31;;;;;;;4.00;1.50;;;;;;;17.71;100.00;98549.91;4970360;28;20042;-60
2022/10/22 11:08:31;;;;;;;4.43;1.65;;;;;;;17.71;100.00;98547.25;4978258;28;20809;-60
2022/10/22 11:11:20;;;;;;;3.65;1.60;;;;;;;17.74;100.00;98549.50;4974413;28;20066;-60
2022/10/22 11:13:57;;;;;;;3.92;1.30;;;;;;;17.75;100.00;98551.94;4978044;28;20046;-60
2022/10/22 11:16:32;;;;;;;3.00;1.00;;;;;;;17.74;100.00;98552.94;4979936;28;20432;-60
2022/10/22 11:19:03;;;;;;;2.38;0.82;;;;;;;17.80;100.00;98546.91;4984276;28;20038;-60
2022/10/22 11:21:35;;;;;;;4.07;1.70;;;;;;;17.83;100.00;98550.97;4975329;28;20034;-60
2022/10/22 11:24:01;;;;;;;4.20;1.60;;;;;;;17.89;100.00;98549.41;4980081;28;20080;-60
2022/10/22 11:26:33;;;;;;;3.42;1.10;;;;;;;17.84;100.00;98544.72;4978570;28;20030;-60
2022/10/22 11:29:00;;;;;;;2.78;1.10;;;;;;;17.80;100.00;98533.75;4972943;28;21698;-61
2022/10/22 11:31:26;;;;;;;3.33;1.10;;;;;;;17.60;100.00;98515.22;4972793;28;20039;-60
2022/10/22 11:34:06;;;;;;;3.25;1.10;;;;;;;17.88;100.00;98545.16;4978830;28;20060;-61